Time;durP1;ratioP1;P1;durP2;ratioP2;P2;SDS_P1;SDS_P2;PMS_P1;PMS_P2;Temp;Humidity;BMP_temperature;BMP_pressure;BME280_temperature;BME280_humidity;BME280_pressure;Samples;Min_cycle;Max_cycle;Signal;HPM_P1;HPM_P2
2022/02/04 00:07:57;;;;;;;4.57;2.33;;;9.90;84.70;;;;;;6113742;29;20058;-83
2022/02/04 00:21:20;;;;;;;4.20;2.17;;;9.80;84.80;;;;;;6145254;29;20054;-83
2022/02/04 00:24:22;;;;;;;3.97;2.25;;;9.80;84.80;;;;;;6152146;28;20058;-83
2022/02/04 00:27:27;;;;;;;3.78;2.03;;;9.70;85.00;;;;;;6157975;28;20050;-84
2022/02/04 00:30:33;;;;;;;4.65;2.45;;;9.70;85.30;;;;;;6157661;28;20544;-84
2022/02/04 00:33:39;;;;;;;5.85;1.65;;;9.70;85.30;;;;;;6156237;28;20134;-83
2022/02/04 00:36:47;;;;;;;8.05;2.45;;;9.60;85.50;;;;;;6154945;28;20062;-83
2022/02/04 00:39:55;;;;;;;;;;;9.60;85.60;;;;;;6155295;28;20465;-84
2022/02/04 00:43:01;;;;;;;5.20;2.45;;;9.60;85.90;;;;;;6154831;28;20394;-84
2022/02/04 00:46:10;;;;;;;4.30;2.05;;;9.50;85.70;;;;;;6154976;28;20145;-83
2022/02/04 00:49:18;;;;;;;11.63;2.85;;;9.50;86.20;;;;;;6154578;28;20633;-83
2022/02/04 00:52:26;;;;;;;6.97;2.30;;;9.60;86.40;;;;;;6148952;28;20502;-83
2022/02/04 00:55:35;;;;;;;6.30;2.40;;;9.50;86.60;;;;;;6153108;28;20043;-84
2022/02/04 01:28:51;;;;;;;4.10;2.20;;;9.50;88.00;;;;;;6188775;28;20424;-81
2022/02/04 01:31:53;;;;;;;7.65;2.00;;;9.40;88.10;;;;;;6188638;28;20113;-81
2022/02/04 01:34:54;;;;;;;7.03;2.63;;;9.40;88.50;;;;;;6187148;28;20046;-81
2022/02/04 01:37:58;;;;;;;4.07;2.55;;;9.40;88.60;;;;;;6186653;28;20054;-81
2022/02/04 01:41:00;;;;;;;5.03;2.60;;;9.30;88.90;;;;;;6185748;28;20110;-81
2022/02/04 01:44:01;;;;;;;4.80;2.38;;;9.30;89.00;;;;;;6185484;28;20047;-81
2022/02/04 01:47:05;;;;;;;5.57;2.60;;;9.30;89.10;;;;;;6185262;28;20121;-80
2022/02/04 01:50:07;;;;;;;6.88;2.92;;;9.30;89.30;;;;;;6183637;28;20061;-81
2022/02/04 01:53:10;;;;;;;5.57;2.78;;;9.30;89.70;;;;;;6185628;28;20038;-81
2022/02/04 01:56:14;;;;;;;6.80;3.97;;;9.20;89.80;;;;;;6186035;28;20039;-81
2022/02/04 01:59:16;;;;;;;5.40;3.58;;;9.20;90.10;;;;;;6186377;28;20039;-81
2022/02/04 02:02:18;;;;;;;6.15;4.05;;;9.40;90.20;;;;;;6186387;28;20493;-81
2022/02/04 02:05:20;;;;;;;5.80;3.20;;;9.30;90.20;;;;;;6183794;28;20046;-81
2022/02/04 02:08:23;;;;;;;6.13;3.53;;;9.20;90.30;;;;;;6185528;28;20072;-80
2022/02/04 02:11:25;;;;;;;9.30;4.75;;;9.20;90.40;;;;;;6185692;28;20550;-81
2022/02/04 02:14:29;;;;;;;6.85;3.92;;;9.20;90.40;;;;;;6185591;28;20057;-81
2022/02/04 02:34:49;;;;;;;6.55;4.13;;;9.20;90.80;;;;;;6183360;28;20055;-81
2022/02/04 02:44:41;;;;;;;9.73;4.13;;;9.20;90.70;;;;;;6183591;28;20038;-81
2022/02/04 02:47:54;;;;;;;9.90;5.18;;;9.20;90.70;;;;;;6183086;28;20126;-81
2022/02/04 02:51:15;;;;;;;7.60;4.68;;;9.10;90.60;;;;;;6184929;28;20051;-81
2022/02/04 02:54:41;;;;;;;8.75;5.50;;;9.20;90.70;;;;;;6184387;28;20050;-81
2022/02/04 02:58:06;;;;;;;10.48;5.57;;;9.10;90.70;;;;;;6184113;28;20046;-81
2022/02/04 03:01:08;;;;;;;7.60;4.35;;;9.10;90.80;;;;;;6184171;28;20050;-81
2022/02/04 03:04:14;;;;;;;9.48;5.13;;;9.10;90.80;;;;;;6183653;28;20058;-81
2022/02/04 03:07:15;;;;;;;6.55;4.22;;;9.10;90.70;;;;;;6183276;28;20046;-81
2022/02/04 03:10:19;;;;;;;8.05;4.38;;;9.10;90.70;;;;;;6182983;28;20046;-82
2022/02/04 03:13:21;;;;;;;7.00;4.32;;;9.10;90.70;;;;;;6183036;28;20042;-81
2022/02/04 03:16:23;;;;;;;8.75;4.47;;;9.10;91.10;;;;;;6182696;28;20475;-81
2022/02/04 03:19:26;;;;;;;7.68;3.92;;;9.10;90.70;;;;;;6184038;28;20074;-82
2022/02/04 03:22:28;;;;;;;8.68;4.63;;;9.10;90.80;;;;;;6183898;28;20079;-82
2022/02/04 03:25:37;;;;;;;7.63;4.07;;;9.20;90.90;;;;;;6184129;28;20129;-82
2022/02/04 03:28:40;;;;;;;8.45;3.90;;;9.20;90.80;;;;;;6183967;28;20054;-81
2022/02/04 03:31:46;;;;;;;7.97;4.00;;;9.20;90.90;;;;;;6185123;28;20055;-82
2022/02/04 03:34:47;;;;;;;6.70;3.67;;;9.10;91.10;;;;;;6185610;28;20071;-82
2022/02/04 03:37:51;;;;;;;10.20;3.53;;;9.10;91.30;;;;;;6184152;28;20061;-82
2022/02/04 03:40:54;;;;;;;10.68;4.70;;;9.10;91.40;;;;;;6183757;28;20046;-82
2022/02/04 03:43:56;;;;;;;7.65;4.20;;;9.10;91.40;;;;;;6181961;28;20046;-82
2022/02/04 03:46:57;;;;;;;6.43;3.92;;;9.10;91.50;;;;;;6188450;28;20050;-82
2022/02/04 03:49:59;;;;;;;9.57;5.28;;;9.10;91.50;;;;;;6183111;28;20051;-82
2022/02/04 03:53:03;;;;;;;7.40;4.53;;;9.10;91.50;;;;;;6182464;28;20043;-82
2022/02/04 03:56:06;;;;;;;9.30;4.60;;;9.00;91.80;;;;;;6181983;28;20078;-82
2022/02/04 03:59:08;;;;;;;6.80;3.80;;;9.00;91.90;;;;;;6182490;28;20038;-82
2022/02/04 04:02:10;;;;;;;7.07;4.38;;;8.90;91.90;;;;;;6183333;28;20057;-82
2022/02/04 04:05:12;;;;;;;8.20;4.20;;;8.90;92.10;;;;;;6183250;28;20054;-81
2022/02/04 04:08:15;;;;;;;8.13;5.00;;;8.90;92.20;;;;;;6182832;28;20189;-82
2022/02/04 04:11:19;;;;;;;11.70;5.38;;;8.80;92.30;;;;;;6183417;28;20046;-81
2022/02/04 04:14:20;;;;;;;15.20;5.65;;;8.80;92.20;;;;;;6186376;28;20094;-81
2022/02/04 04:17:22;;;;;;;8.43;4.38;;;8.70;92.30;;;;;;6192858;28;20047;-82
2022/02/04 04:20:26;;;;;;;7.97;4.97;;;8.70;92.40;;;;;;6192086;28;20066;-82
2022/02/04 04:23:28;;;;;;;13.00;5.43;;;8.60;92.50;;;;;;6189889;28;20138;-82
2022/02/04 04:26:31;;;;;;;10.88;4.78;;;8.60;92.60;;;;;;6188634;28;20082;-82
2022/02/04 04:29:33;;;;;;;7.35;4.60;;;8.50;92.60;;;;;;6188321;28;20405;-82
2022/02/04 04:32:35;;;;;;;9.18;4.78;;;8.50;92.60;;;;;;6188505;28;20110;-82
2022/02/04 04:35:36;;;;;;;8.27;5.40;;;8.50;92.60;;;;;;6187398;28;20054;-82
2022/02/04 04:38:44;;;;;;;10.13;5.30;;;8.50;92.60;;;;;;6188508;28;20054;-82
2022/02/04 04:41:57;;;;;;;8.13;5.13;;;8.50;92.70;;;;;;6188459;28;20058;-82
2022/02/04 04:45:22;;;;;;;10.57;5.28;;;8.40;92.70;;;;;;6186981;28;20050;-82
2022/02/04 05:28:42;;;;;;;11.82;6.03;;;8.30;92.60;;;;;;6184672;28;20043;-82
2022/02/04 05:31:45;;;;;;;11.10;6.47;;;8.30;92.50;;;;;;6185455;28;20046;-82
2022/02/04 05:34:50;;;;;;;9.27;5.50;;;8.40;92.40;;;;;;6184495;28;20497;-82
2022/02/04 05:37:51;;;;;;;9.68;5.38;;;8.40;92.40;;;;;;6185089;28;20058;-82
2022/02/04 05:40:54;;;;;;;9.38;4.57;;;8.40;92.40;;;;;;6184301;28;20047;-82
2022/02/04 05:43:58;;;;;;;10.57;4.78;;;8.50;92.20;;;;;;6184824;28;20070;-81
2022/02/04 05:47:09;;;;;;;7.07;4.07;;;8.50;92.30;;;;;;6184049;28;20047;-82
2022/02/04 05:50:16;;;;;;;7.68;4.50;;;8.50;92.10;;;;;;6184832;28;20054;-82
2022/02/04 05:53:23;;;;;;;11.73;4.45;;;8.50;92.20;;;;;;6184696;28;20043;-82
2022/02/04 05:56:33;;;;;;;7.90;4.32;;;8.50;92.10;;;;;;6185240;28;20054;-82
2022/02/04 05:59:52;;;;;;;7.72;4.60;;;8.50;92.00;;;;;;6185289;28;20061;-82
2022/02/04 06:03:13;;;;;;;7.97;3.70;;;8.50;92.20;;;;;;6184771;28;20419;-82
2022/02/04 06:06:46;;;;;;;6.88;3.47;;;8.40;92.30;;;;;;6184062;28;20520;-82
2022/02/04 06:13:22;;;;;;;7.63;4.10;;;8.30;92.50;;;;;;6177984;28;20046;-82
2022/02/04 06:23:03;;;;;;;8.60;4.32;;;8.30;92.60;;;;;;6171653;28;20043;-80
2022/02/04 06:26:05;;;;;;;6.97;4.40;;;8.30;92.60;;;;;;6177260;28;20090;-80
2022/02/04 06:29:08;;;;;;;7.78;4.82;;;8.30;92.50;;;;;;6176960;28;20130;-80
2022/02/04 06:32:10;;;;;;;9.48;5.35;;;8.30;92.40;;;;;;6177286;28;20069;-80
2022/02/04 06:35:14;;;;;;;11.80;5.53;;;8.30;92.30;;;;;;6177587;28;20049;-80
2022/02/04 06:38:16;;;;;;;8.65;4.80;;;8.30;92.20;;;;;;6178980;28;20054;-81
2022/02/04 06:41:18;;;;;;;8.02;4.60;;;8.40;92.50;;;;;;6181463;28;20051;-79
2022/02/04 06:44:20;;;;;;;10.63;5.07;;;8.40;92.10;;;;;;6181351;28;20057;-79
2022/02/04 06:47:22;;;;;;;9.88;5.18;;;8.40;92.00;;;;;;6182336;28;20697;-80
2022/02/04 06:50:25;;;;;;;11.85;5.72;;;8.40;92.10;;;;;;6178644;28;20058;-81
2022/02/04 06:53:27;;;;;;;9.88;6.00;;;8.40;92.10;;;;;;6182062;28;20118;-81
2022/02/04 06:56:32;;;;;;;12.38;6.35;;;8.40;92.00;;;;;;6188428;28;20074;-79
2022/02/04 06:59:36;;;;;;;11.30;7.18;;;8.30;92.10;;;;;;6176543;28;20365;-80
2022/02/04 07:02:38;;;;;;;10.20;5.95;;;8.30;92.30;;;;;;6175983;28;20109;-80
2022/02/04 07:05:53;;;;;;;9.98;5.38;;;8.30;92.40;;;;;;6176992;28;20051;-81
2022/02/04 07:09:11;;;;;;;12.43;7.38;;;8.30;92.50;;;;;;6176304;28;20058;-80
2022/02/04 07:12:30;;;;;;;12.05;7.13;;;8.30;92.60;;;;;;6178595;28;20058;-81
2022/02/04 07:15:54;;;;;;;11.93;5.85;;;8.30;92.60;;;;;;6179405;28;20047;-80
2022/02/04 07:22:19;;;;;;;12.60;6.05;;;8.30;92.60;;;;;;6182947;28;20050;-81
2022/02/04 07:25:21;;;;;;;11.57;5.45;;;8.20;92.90;;;;;;6182489;28;20053;-79
2022/02/04 07:28:23;;;;;;;10.57;5.63;;;8.20;92.70;;;;;;6182527;28;20424;-80
2022/02/04 07:31:26;;;;;;;12.77;6.85;;;8.20;92.80;;;;;;6183271;28;20070;-80
2022/02/04 07:34:41;;;;;;;13.75;6.72;;;8.20;92.80;;;;;;6182700;28;20592;-81
2022/02/04 07:41:05;;;;;;;12.90;5.70;;;8.20;92.70;;;;;;6181032;28;20050;-80
2022/02/04 07:44:06;;;;;;;17.95;7.57;;;8.20;93.10;;;;;;6181072;28;20511;-81
2022/02/04 07:47:11;;;;;;;12.50;6.43;;;8.30;93.00;;;;;;6181667;28;20063;-79
2022/02/04 07:50:13;;;;;;;10.65;5.55;;;8.30;92.60;;;;;;6184225;28;20054;-80
2022/02/04 07:53:18;;;;;;;15.23;7.30;;;8.00;92.90;;;;;;6183128;28;20043;-80
2022/02/04 07:56:23;;;;;;;14.18;7.63;;;8.10;93.30;;;;;;6183534;28;20046;-80
2022/02/04 07:59:24;;;;;;;12.98;5.90;;;8.20;93.30;;;;;;6189082;28;20440;-81
2022/02/04 08:02:26;;;;;;;12.02;6.55;;;8.30;92.90;;;;;;6188775;28;20050;-81
2022/02/04 08:05:29;;;;;;;16.20;7.60;;;8.30;92.80;;;;;;6189499;28;20130;-80
2022/02/04 08:08:38;;;;;;;14.82;7.70;;;8.40;92.90;;;;;;6189702;28;20066;-81
2022/02/04 08:12:05;;;;;;;16.05;8.38;;;8.50;92.80;;;;;;6189584;28;20055;-80
2022/02/04 08:15:17;;;;;;;16.30;8.18;;;8.60;92.40;;;;;;6189773;28;20125;-80
2022/02/04 08:25:12;;;;;;;15.45;6.95;;;9.10;92.20;;;;;;6130663;28;20085;-81
2022/02/04 08:31:44;;;;;;;13.38;7.22;;;9.80;91.10;;;;;;6190562;28;20057;-82
2022/02/04 08:35:03;;;;;;;14.10;6.95;;;10.00;90.70;;;;;;6186580;28;20058;-80
2022/02/04 08:38:23;;;;;;;13.57;6.93;;;10.20;90.40;;;;;;6194459;28;20055;-81
2022/02/04 08:55:03;;;;;;;8.57;5.57;;;11.50;84.90;;;;;;6140051;28;20383;-83
2022/02/04 08:58:17;;;;;;;9.80;5.10;;;11.70;83.40;;;;;;6195748;28;20062;-82
2022/02/04 09:01:23;;;;;;;9.82;5.53;;;11.70;83.30;;;;;;6196250;28;20051;-84
2022/02/04 09:04:32;;;;;;;10.88;5.85;;;11.60;82.10;;;;;;6191532;28;20054;-81
2022/02/04 09:07:47;;;;;;;9.48;5.25;;;11.50;82.30;;;;;;6194649;28;20154;-81
2022/02/04 09:10:51;;;;;;;9.80;5.53;;;11.30;82.80;;;;;;6190472;28;20046;-82
2022/02/04 09:17:27;;;;;;;10.35;5.88;;;11.10;83.70;;;;;;6188469;28;20054;-82
2022/02/04 09:20:33;;;;;;;12.00;5.95;;;11.00;84.20;;;;;;6190680;28;20053;-84
2022/02/04 09:23:35;;;;;;;11.63;5.15;;;11.00;84.40;;;;;;6188738;28;20102;-81
2022/02/04 09:26:38;;;;;;;9.02;5.20;;;11.00;84.60;;;;;;6188363;28;20135;-85
2022/02/04 09:29:41;;;;;;;9.10;4.18;;;11.00;84.20;;;;;;6191068;28;20086;-82
2022/02/04 09:32:44;;;;;;;5.60;3.80;;;10.90;84.50;;;;;;6193938;28;20046;-83
2022/02/04 09:35:45;;;;;;;6.50;4.20;;;10.90;85.40;;;;;;6194738;28;20047;-83
2022/02/04 09:38:47;;;;;;;6.70;3.58;;;11.00;84.10;;;;;;6193405;28;20054;-81
2022/02/04 09:41:49;;;;;;;6.93;3.22;;;11.10;84.10;;;;;;6194772;28;20121;-82
2022/02/04 09:44:52;;;;;;;6.95;3.15;;;11.20;84.40;;;;;;6190754;28;20129;-80
2022/02/04 09:47:59;;;;;;;4.18;2.35;;;11.30;83.50;;;;;;6188044;28;20199;-82
2022/02/04 09:51:01;;;;;;;7.10;3.47;;;11.50;83.40;;;;;;6187336;28;20047;-82
2022/02/04 10:07:39;;;;;;;2.42;1.67;;;11.00;81.80;;;;;;6190725;28;20054;-82
2022/02/04 10:14:37;;;;;;;4.00;1.83;;;12.10;78.20;;;;;;6192651;28;20234;-84
2022/02/04 10:17:41;;;;;;;3.25;1.23;;;12.60;75.50;;;;;;6191585;28;20043;-81
2022/02/04 10:20:44;;;;;;;4.20;2.03;;;12.70;73.60;;;;;;6187562;28;20054;-83
2022/02/04 10:23:51;;;;;;;2.72;1.15;;;12.90;73.10;;;;;;6186544;28;20472;-84
2022/02/04 10:27:10;;;;;;;2.53;1.15;;;13.00;72.00;;;;;;6187431;28;20042;-82
2022/02/04 10:30:13;;;;;;;2.72;1.13;;;13.00;71.80;;;;;;6194075;28;20050;-84
2022/02/04 10:33:17;;;;;;;2.17;0.88;;;13.00;71.80;;;;;;6188527;28;20047;-82
2022/02/04 10:36:41;;;;;;;4.03;1.10;;;12.90;70.90;;;;;;6184277;28;20048;-83
2022/02/04 10:39:57;;;;;;;1.73;1.05;;;12.80;72.00;;;;;;6183959;28;20050;-83
2022/02/04 10:43:19;;;;;;;2.75;1.42;;;12.90;71.70;;;;;;6183947;28;20043;-83
2022/02/04 10:46:29;;;;;;;2.78;1.50;;;13.50;72.00;;;;;;6187694;28;20050;-83
2022/02/04 10:49:46;;;;;;;2.58;1.50;;;14.00;70.30;;;;;;6182421;28;20104;-82
2022/02/04 10:53:11;;;;;;;3.30;1.13;;;14.70;68.70;;;;;;6178093;28;20427;-83
2022/02/04 10:56:44;;;;;;;2.40;1.25;;;15.00;64.60;;;;;;6184804;28;20046;-83
2022/02/04 11:00:02;;;;;;;2.28;1.15;;;14.80;63.90;;;;;;6187553;28;20656;-83
2022/02/04 11:03:08;;;;;;;3.22;1.33;;;14.60;63.40;;;;;;6185759;28;20065;-82
2022/02/04 11:06:21;;;;;;;2.83;1.27;;;14.20;64.70;;;;;;6190907;28;20074;-83
2022/02/04 11:09:33;;;;;;;3.72;1.48;;;13.90;64.00;;;;;;6183822;28;20053;-83
2022/02/04 11:52:45;;;;;;;1.55;0.82;;;12.70;69.20;;;;;;6192821;28;20050;-81
2022/02/04 11:55:59;;;;;;;3.47;0.82;;;12.50;69.60;;;;;;6167507;28;20043;-82
2022/02/04 11:59:02;;;;;;;1.80;0.82;;;12.30;70.10;;;;;;6170068;28;20046;-82
2022/02/04 12:02:46;;;;;;;2.38;0.80;;;12.00;70.30;;;;;;6170672;28;20051;-82
2022/02/04 12:05:48;;;;;;;1.58;0.75;;;11.70;71.60;;;;;;6166806;28;20504;-81
2022/02/04 12:08:50;;;;;;;2.75;1.13;;;11.60;73.00;;;;;;6166569;28;20054;-82
2022/02/04 12:11:52;;;;;;;1.67;0.98;;;11.50;73.30;;;;;;6168564;28;20053;-82
2022/02/04 12:14:54;;;;;;;1.75;1.10;;;11.60;74.10;;;;;;6168060;28;20051;-82
2022/02/04 12:17:58;;;;;;;1.73;0.77;;;12.00;74.10;;;;;;6179185;28;20122;-82
2022/02/04 12:21:03;;;;;;;0.90;0.45;;;12.20;71.40;;;;;;6190098;28;20066;-81
2022/02/04 12:24:28;;;;;;;2.03;0.77;;;12.20;71.10;;;;;;6189966;28;20051;-82
2022/02/04 12:27:37;;;;;;;0.90;0.43;;;12.30;70.80;;;;;;6192846;28;20137;-82
2022/02/04 12:30:42;;;;;;;;;;;12.50;69.10;;;;;;6194312;28;20051;-82
2022/02/04 12:33:47;;;;;;;0.40;0.20;;;12.50;68.90;;;;;;6194255;28;19922;-81
2022/02/04 12:36:52;;;;;;;0.57;0.28;;;12.60;68.30;;;;;;6194132;28;20090;-82
2022/02/04 12:39:54;;;;;;;0.30;0.20;;;12.50;66.50;;;;;;6195788;28;20056;-82
2022/02/04 12:42:56;;;;;;;0.57;0.22;;;12.40;66.70;;;;;;6194135;28;20101;-82
2022/02/04 12:45:58;;;;;;;0.52;0.20;;;12.50;66.00;;;;;;6196556;28;20053;-82
2022/02/04 12:49:04;;;;;;;0.20;0.10;;;12.40;65.90;;;;;;6194356;28;20113;-82
2022/02/04 12:52:15;;;;;;;0.30;0.20;;;12.20;65.90;;;;;;6195171;28;20042;-82
2022/02/04 12:55:25;;;;;;;0.98;0.30;;;12.10;66.00;;;;;;6194663;28;20057;-82
2022/02/04 12:58:44;;;;;;;0.45;0.10;;;12.00;67.00;;;;;;6196216;28;20051;-82
2022/02/04 13:02:06;;;;;;;0.70;0.20;;;12.10;66.00;;;;;;6195786;28;20102;-81
2022/02/04 13:08:40;;;;;;;0.85;0.30;;;12.00;65.50;;;;;;6196474;28;20050;-82
2022/02/04 13:11:42;;;;;;;0.30;0.13;;;11.90;65.50;;;;;;6187121;28;20054;-81
2022/02/04 13:14:45;;;;;;;0.00;0.00;;;11.80;65.10;;;;;;6183263;28;20206;-82
2022/02/04 13:17:47;;;;;;;0.20;0.10;;;11.70;65.70;;;;;;6183058;28;20053;-81
2022/02/04 13:20:55;;;;;;;0.88;0.10;;;11.70;65.60;;;;;;6183507;28;20050;-81
2022/02/04 13:24:01;;;;;;;;;;;11.60;66.60;;;;;;6180852;28;20536;-81
2022/02/04 13:27:12;;;;;;;4.88;0.75;;;11.60;66.20;;;;;;6180179;28;19922;-82
2022/02/04 13:30:24;;;;;;;2.75;1.80;;;11.50;66.80;;;;;;6181462;28;20142;-82
2022/02/04 13:33:28;;;;;;;1.85;0.70;;;11.40;66.80;;;;;;6179565;28;20527;-81
2022/02/04 13:36:37;;;;;;;5.82;3.00;;;11.30;66.90;;;;;;6179466;28;20072;-82
2022/02/04 13:39:51;;;;;;;3.00;1.23;;;11.20;67.80;;;;;;6180345;28;20082;-81
2022/02/04 13:43:00;;;;;;;1.77;1.33;;;11.20;67.70;;;;;;6180610;28;20051;-82
2022/02/04 13:46:11;;;;;;;0.80;0.20;;;11.20;68.00;;;;;;6181007;28;20106;-81
2022/02/04 13:49:29;;;;;;;0.20;0.10;;;11.10;68.20;;;;;;6179827;28;20050;-81
2022/02/04 13:52:52;;;;;;;1.47;0.77;;;11.10;68.30;;;;;;6176906;28;20047;-79
2022/02/04 13:56:08;;;;;;;0.98;0.68;;;10.90;68.30;;;;;;6152835;28;20044;-80
2022/02/04 13:59:17;;;;;;;5.75;2.95;;;10.90;69.40;;;;;;6152245;28;20637;-80
2022/02/04 14:02:28;;;;;;;0.25;0.10;;;10.90;69.30;;;;;;6154210;28;20690;-80
2022/02/04 14:05:34;;;;;;;0.50;0.40;;;10.90;69.70;;;;;;6153502;28;20051;-82
2022/02/04 14:08:46;;;;;;;0.77;0.22;;;10.70;70.30;;;;;;6152894;28;20130;-80
2022/02/04 14:11:49;;;;;;;0.55;0.30;;;10.90;70.80;;;;;;6153106;28;20060;-80
2022/02/04 14:14:58;;;;;;;0.90;0.28;;;10.90;70.60;;;;;;6152241;28;20043;-79
2022/02/04 14:18:05;;;;;;;0.77;0.20;;;11.00;70.80;;;;;;6173376;28;20046;-80
2022/02/04 14:21:09;;;;;;;0.43;0.20;;;10.90;70.60;;;;;;6175985;28;20623;-80
2022/02/04 14:24:13;;;;;;;0.32;0.20;;;10.90;70.60;;;;;;6175602;28;20046;-79
2022/02/04 14:27:15;;;;;;;0.82;0.68;;;10.90;70.90;;;;;;6176996;28;20070;-79
2022/02/04 14:30:22;;;;;;;2.17;0.40;;;10.80;70.30;;;;;;6177332;28;20058;-80
2022/02/04 14:34:06;;;;;;;0.30;0.15;;;10.70;70.50;;;;;;6174314;28;20150;-80
2022/02/04 14:36:58;;;;;;;0.38;0.20;;;10.70;70.90;;;;;;6167652;28;20129;-80
2022/02/04 14:53:28;;;;;;;2.17;0.22;;;10.70;71.70;;;;;;6163630;28;20046;-79
2022/02/04 15:00:20;;;;;;;1.05;0.40;;;10.90;71.40;;;;;;6103404;28;20389;-80
2022/02/04 15:03:30;;;;;;;0.75;0.40;;;10.90;71.50;;;;;;6175565;28;20568;-80
2022/02/04 15:06:35;;;;;;;1.35;0.57;;;10.90;71.70;;;;;;6174943;28;20185;-80
2022/02/04 15:09:40;;;;;;;2.90;0.40;;;10.90;71.80;;;;;;6175347;28;20058;-79
2022/02/04 15:12:44;;;;;;;1.00;0.52;;;10.90;71.80;;;;;;6174486;28;20074;-80
2022/02/04 15:15:46;;;;;;;0.47;0.22;;;10.90;71.80;;;;;;6174912;28;20412;-80
2022/02/04 15:18:48;;;;;;;1.17;0.20;;;10.90;71.80;;;;;;6174718;28;20521;-80
2022/02/04 15:21:52;;;;;;;1.13;0.30;;;10.80;71.80;;;;;;6174307;28;20135;-80
2022/02/04 15:24:58;;;;;;;0.43;0.20;;;10.70;71.70;;;;;;6174074;28;20070;-80
2022/02/04 15:28:16;;;;;;;0.75;0.30;;;10.80;72.30;;;;;;6174411;28;20054;-80
2022/02/04 15:31:30;;;;;;;0.40;0.20;;;10.90;72.10;;;;;;6174407;28;20046;-79
2022/02/04 15:34:33;;;;;;;0.63;0.22;;;11.00;71.50;;;;;;6174473;28;20133;-80
2022/02/04 15:37:35;;;;;;;2.08;0.55;;;10.90;71.20;;;;;;6174639;28;20058;-80
2022/02/04 15:40:42;;;;;;;1.10;0.50;;;10.90;71.20;;;;;;6174798;28;20046;-79
2022/02/04 15:43:49;;;;;;;1.08;0.47;;;10.80;71.20;;;;;;6174643;28;20401;-80
2022/02/04 15:50:28;;;;;;;1.83;0.70;;;10.80;71.40;;;;;;6159784;28;20046;-79
2022/02/04 15:53:34;;;;;;;2.65;1.33;;;10.70;71.30;;;;;;6179701;28;20074;-79
2022/02/04 15:56:51;;;;;;;0.75;0.43;;;10.70;71.70;;;;;;6172468;28;20051;-80
2022/02/04 16:00:16;;;;;;;0.82;0.40;;;10.60;71.90;;;;;;6179340;28;20066;-80
2022/02/04 16:03:35;;;;;;;2.92;1.20;;;10.60;71.90;;;;;;6177671;28;20054;-80
2022/02/04 16:06:37;;;;;;;0.52;0.32;;;10.60;72.40;;;;;;6175431;28;20082;-81
2022/02/04 16:09:39;;;;;;;0.28;0.20;;;10.50;72.20;;;;;;6179667;28;20148;-81
2022/02/04 16:12:51;;;;;;;2.42;1.17;;;10.50;72.40;;;;;;6183715;28;20110;-80
2022/02/04 16:15:59;;;;;;;0.43;0.30;;;10.50;72.40;;;;;;6183512;28;20047;-81
2022/02/04 16:19:06;;;;;;;3.40;0.20;;;10.60;72.30;;;;;;6183525;28;20131;-81
2022/02/04 16:22:29;;;;;;;0.88;0.30;;;10.50;71.90;;;;;;6184851;28;20049;-82
2022/02/04 16:25:41;;;;;;;2.38;1.05;;;10.50;71.90;;;;;;6182701;28;20043;-82
2022/02/04 16:28:42;;;;;;;1.40;0.50;;;10.40;71.80;;;;;;6184156;28;20050;-83
2022/02/04 16:31:46;;;;;;;0.60;0.22;;;10.40;71.80;;;;;;6185270;28;20072;-81
2022/02/04 16:34:53;;;;;;;2.80;0.60;;;10.40;72.10;;;;;;6184540;28;20051;-81
2022/02/04 16:38:02;;;;;;;0.53;0.20;;;10.40;73.60;;;;;;6186043;28;20047;-81
2022/02/04 16:41:07;;;;;;;0.32;0.10;;;10.30;74.50;;;;;;6182184;28;20090;-81
2022/02/04 16:44:09;;;;;;;0.98;0.40;;;10.30;74.90;;;;;;6181588;28;20113;-81
2022/02/04 16:47:13;;;;;;;0.32;0.15;;;10.20;75.10;;;;;;6181181;28;20114;-81
2022/02/04 16:50:21;;;;;;;0.45;0.22;;;10.10;75.00;;;;;;6182315;28;20497;-81
2022/02/04 16:53:23;;;;;;;0.90;0.20;;;10.10;75.50;;;;;;6181131;28;20116;-80
2022/02/04 16:56:25;;;;;;;0.20;0.20;;;10.00;76.70;;;;;;6179366;28;20054;-80
2022/02/04 16:59:27;;;;;;;0.98;0.40;;;9.90;78.50;;;;;;6180401;28;20078;-80
2022/02/04 17:02:31;;;;;;;1.25;0.50;;;9.90;80.10;;;;;;6180390;28;20141;-80
2022/02/04 17:05:41;;;;;;;0.82;0.40;;;9.80;80.70;;;;;;6181320;28;20056;-80
2022/02/04 17:08:48;;;;;;;1.42;0.50;;;9.80;81.50;;;;;;6181254;28;20136;-80
2022/02/04 17:12:00;;;;;;;0.82;0.30;;;9.70;81.60;;;;;;6183144;28;20513;-80
2022/02/04 17:15:02;;;;;;;1.25;0.45;;;9.70;81.70;;;;;;6182400;28;20042;-80
2022/02/04 17:18:07;;;;;;;2.47;1.15;;;9.60;82.40;;;;;;6183712;28;20190;-81
2022/02/04 17:21:09;;;;;;;6.97;2.42;;;9.50;82.60;;;;;;6181578;28;20049;-81
2022/02/04 17:24:13;;;;;;;2.55;1.00;;;9.50;83.60;;;;;;6183352;28;20043;-82
2022/02/04 17:27:15;;;;;;;1.50;0.55;;;9.40;83.80;;;;;;6181417;28;20047;-81
2022/02/04 17:30:17;;;;;;;3.47;0.85;;;9.40;84.50;;;;;;6184210;28;20061;-82
2022/02/04 17:33:20;;;;;;;1.27;0.30;;;9.40;84.30;;;;;;6180971;28;20457;-80
2022/02/04 17:36:22;;;;;;;1.15;0.50;;;9.30;84.60;;;;;;6183358;28;20050;-80
2022/02/04 17:39:25;;;;;;;0.70;0.28;;;9.30;85.20;;;;;;6181005;28;20062;-81
2022/02/04 17:42:27;;;;;;;1.60;0.50;;;9.30;85.80;;;;;;6180879;28;20101;-82
2022/02/04 17:45:29;;;;;;;0.65;0.47;;;9.30;86.20;;;;;;6181249;28;20057;-82
2022/02/04 17:48:40;;;;;;;1.40;0.52;;;9.30;87.00;;;;;;6180988;28;20050;-82
2022/02/04 17:51:49;;;;;;;0.98;0.35;;;9.30;87.50;;;;;;6180486;28;20050;-83
2022/02/04 17:54:55;;;;;;;1.23;0.43;;;9.30;87.20;;;;;;6180322;28;20047;-82
2022/02/04 17:58:09;;;;;;;1.05;0.43;;;9.30;86.60;;;;;;6182795;28;20181;-82
2022/02/04 18:01:23;;;;;;;0.38;0.30;;;9.20;86.30;;;;;;6180072;28;20137;-81
2022/02/04 18:07:48;;;;;;;1.85;0.73;;;9.30;85.70;;;;;;6178777;28;20055;-82
2022/02/04 18:10:50;;;;;;;1.30;0.35;;;9.30;85.10;;;;;;6180110;28;20054;-80
2022/02/04 18:13:52;;;;;;;1.88;0.85;;;9.20;85.10;;;;;;6182009;28;20050;-80
2022/02/04 18:16:54;;;;;;;0.93;0.35;;;9.30;85.00;;;;;;6179827;28;20585;-81
2022/02/04 18:19:57;;;;;;;0.82;0.35;;;9.40;84.80;;;;;;6180274;28;20585;-79
2022/02/04 18:22:58;;;;;;;50.10;24.55;;;9.40;84.50;;;;;;6179376;28;20049;-81
2022/02/04 18:26:00;;;;;;;1.45;0.93;;;9.50;84.50;;;;;;6179971;28;20051;-80
2022/02/04 18:29:02;;;;;;;0.90;0.40;;;9.50;84.30;;;;;;6179767;28;20047;-81
2022/02/04 18:32:05;;;;;;;1.67;0.45;;;9.60;84.20;;;;;;6180762;28;20185;-80
2022/02/04 18:35:09;;;;;;;2.00;0.57;;;9.60;84.40;;;;;;6177769;28;20074;-80
2022/02/04 18:38:15;;;;;;;2.47;1.05;;;9.50;84.20;;;;;;6177634;28;20043;-80
2022/02/04 18:41:47;;;;;;;1.73;0.73;;;9.50;84.10;;;;;;6176316;28;20050;-80
2022/02/04 18:44:52;;;;;;;1.40;0.60;;;9.50;84.50;;;;;;6177379;28;20047;-80
2022/02/04 18:47:58;;;;;;;1.98;0.40;;;9.60;84.50;;;;;;6178740;28;20528;-80
2022/02/04 18:51:18;;;;;;;0.63;0.43;;;9.50;84.20;;;;;;6179845;28;20042;-81
2022/02/04 18:57:45;;;;;;;1.75;0.60;;;9.50;83.90;;;;;;6163700;28;20050;-80
2022/02/04 19:00:49;;;;;;;0.73;0.38;;;9.70;83.90;;;;;;6178059;28;20505;-80
2022/02/04 19:03:56;;;;;;;0.77;0.40;;;9.70;83.40;;;;;;6177326;28;20062;-80
2022/02/04 19:07:04;;;;;;;0.60;0.40;;;9.70;84.00;;;;;;6176509;28;20054;-81
2022/02/04 19:10:07;;;;;;;1.23;0.50;;;9.70;83.80;;;;;;6200794;23;20043;-85
2022/02/04 19:13:13;;;;;;;0.50;0.30;;;9.70;84.30;;;;;;6180270;28;20072;-84
2022/02/04 19:16:27;;;;;;;0.80;0.30;;;9.70;84.60;;;;;;6181165;28;20070;-83
2022/02/04 19:19:49;;;;;;;1.17;0.35;;;9.70;85.00;;;;;;6158464;28;20468;-84
2022/02/04 19:23:07;;;;;;;1.27;0.40;;;9.70;84.70;;;;;;6155499;28;20791;-84
2022/02/04 19:26:15;;;;;;;1.37;0.27;;;9.70;85.00;;;;;;6155015;29;20051;-81
2022/02/04 19:29:17;;;;;;;0.95;0.20;;;9.70;85.10;;;;;;6154438;28;20044;-81
2022/02/04 19:32:19;;;;;;;0.88;0.20;;;9.70;85.50;;;;;;6153356;28;20134;-81
2022/02/04 19:35:21;;;;;;;0.47;0.20;;;9.70;85.40;;;;;;6154342;28;20194;-84
2022/02/04 19:38:26;;;;;;;2.38;0.45;;;9.70;85.20;;;;;;6154780;29;20096;-83
2022/02/04 19:41:29;;;;;;;1.15;0.28;;;9.70;85.30;;;;;;6156598;28;20047;-82
2022/02/04 19:44:34;;;;;;;5.80;0.63;;;9.70;84.70;;;;;;6131086;28;20062;-83
2022/02/04 19:47:45;;;;;;;0.90;0.38;;;9.80;84.60;;;;;;6176140;28;20044;-82
2022/02/04 19:51:00;;;;;;;5.55;0.40;;;9.80;84.50;;;;;;6159138;28;20094;-84
2022/02/04 19:54:37;;;;;;;0.88;0.50;;;9.80;84.00;;;;;;6143659;29;20043;-84
2022/02/04 20:24:48;;;;;;;0.75;0.22;;;10.00;85.50;;;;;;6156780;29;20051;-84
2022/02/04 20:27:58;;;;;;;1.45;0.77;;;9.80;88.10;;;;;;6156905;28;20047;-83
2022/02/04 20:31:00;;;;;;;2.78;0.75;;;9.50;91.90;;;;;;6156815;28;20054;-83
2022/02/04 20:34:02;;;;;;;2.70;0.55;;;9.40;92.90;;;;;;6157042;28;20047;-82
2022/02/04 20:37:04;;;;;;;1.02;0.73;;;9.30;93.40;;;;;;6152672;28;20052;-81
2022/02/04 20:40:15;;;;;;;3.50;0.52;;;9.20;93.50;;;;;;6145106;29;20047;-82
2022/02/04 20:43:18;;;;;;;1.45;0.60;;;9.20;94.00;;;;;;6148580;28;20106;-82
2022/02/04 20:46:20;;;;;;;1.33;0.30;;;9.20;95.00;;;;;;6158508;28;20197;-82
2022/02/04 20:49:22;;;;;;;3.33;0.60;;;9.00;95.00;;;;;;6167281;28;20074;-81
2022/02/04 20:52:26;;;;;;;4.32;0.70;;;9.00;96.10;;;;;;6160929;28;20137;-86